createdAt,value
2019-02-03T00:02:05.148Z,49.30
2019-02-03T00:04:54.876Z,51.80
2019-02-03T00:07:44.136Z,52.37
2019-02-03T00:10:34.169Z,51.87
2019-02-03T00:13:23.235Z,50.63
2019-02-03T00:16:12.419Z,51.60
2019-02-03T00:19:19.832Z,53.63
2019-02-03T00:22:09.932Z,48.50
2019-02-03T00:25:01.904Z,48.10
2019-02-03T00:27:52.366Z,45.83
2019-02-03T00:30:43.941Z,46.83
2019-02-03T00:33:33.413Z,45.93
2019-02-03T00:36:22.619Z,44.73
2019-02-03T00:39:11.373Z,47.10
2019-02-03T00:42:00.471Z,49.10
2019-02-03T00:48:05.996Z,48.80
2019-02-03T00:50:54.698Z,47.97
2019-02-03T00:53:43.582Z,48.43
2019-02-03T00:56:32.229Z,48.97
2019-02-03T00:59:21.257Z,48.57
2019-02-03T01:02:09.905Z,46.90
2019-02-03T01:04:59.116Z,47.17
2019-02-03T01:07:48.877Z,45.33
2019-02-03T01:10:37.608Z,45.27
2019-02-03T01:13:26.294Z,48.43
2019-02-03T01:16:14.797Z,47.97
2019-02-03T01:19:03.606Z,45.90
2019-02-03T01:21:52.376Z,45.17
2019-02-03T01:24:41.353Z,46.87
2019-02-03T01:27:30.383Z,46.60
2019-02-03T01:30:19.875Z,46.73
2019-02-03T01:33:08.887Z,47.43
2019-02-03T01:35:57.709Z,47.77
2019-02-03T01:38:46.082Z,46.53
2019-02-03T01:41:34.277Z,45.00
2019-02-03T01:44:23.233Z,47.07
2019-02-03T01:47:11.795Z,46.50
2019-02-03T01:49:59.994Z,46.97
2019-02-03T01:52:49.070Z,44.20
2019-02-03T01:55:38.087Z,46.37
2019-02-03T01:58:27.029Z,47.13
2019-02-03T02:01:15.514Z,46.63
2019-02-03T02:04:04.779Z,47.73
2019-02-03T02:06:53.514Z,44.67
2019-02-03T02:09:41.703Z,45.53
2019-02-03T02:12:30.642Z,44.57
2019-02-03T02:15:19.654Z,45.30
2019-02-03T02:18:08.809Z,45.07
2019-02-03T02:20:57.171Z,43.73
2019-02-03T02:23:46.367Z,42.60
2019-02-03T02:26:36.597Z,41.47
2019-02-03T02:29:25.001Z,41.37
2019-02-03T02:32:13.745Z,43.60
2019-02-03T02:35:03.445Z,43.10
2019-02-03T02:38:06.004Z,44.20
2019-02-03T02:40:42.937Z,42.40
2019-02-03T02:43:31.555Z,42.77
2019-02-03T02:46:20.415Z,42.97
2019-02-03T02:49:09.577Z,43.80
2019-02-03T02:52:03.453Z,45.27
2019-02-03T02:54:52.873Z,43.57
2019-02-03T02:57:41.125Z,43.00
2019-02-03T03:00:29.842Z,43.83
2019-02-03T03:03:19.089Z,43.77
2019-02-03T03:06:08.358Z,44.97
2019-02-03T03:08:57.589Z,43.37
2019-02-03T03:11:46.519Z,41.63
2019-02-03T03:14:36.539Z,42.70
2019-02-03T03:17:25.054Z,42.40
2019-02-03T03:20:15.568Z,39.83
2019-02-03T03:23:04.979Z,41.33
2019-02-03T03:25:53.420Z,43.50
2019-02-03T03:28:42.630Z,42.93
2019-02-03T03:31:31.013Z,41.47
2019-02-03T03:34:19.479Z,42.03
2019-02-03T03:37:08.046Z,45.50
2019-02-03T03:39:57.621Z,41.50
2019-02-03T03:42:46.663Z,43.97
2019-02-03T03:45:35.742Z,42.33
2019-02-03T03:48:24.418Z,41.23
2019-02-03T03:51:13.865Z,40.80
2019-02-03T03:54:03.526Z,41.43
2019-02-03T03:56:52.075Z,42.63
2019-02-03T03:59:40.530Z,41.53
2019-02-03T04:02:29.594Z,41.90
2019-02-03T04:05:19.162Z,43.47
2019-02-03T04:08:08.333Z,44.37
2019-02-03T04:10:57.512Z,40.97
2019-02-03T04:13:46.844Z,42.53
2019-02-03T04:16:36.720Z,43.10
2019-02-03T04:19:26.084Z,42.60
2019-02-03T04:22:14.725Z,42.43
2019-02-03T04:25:03.941Z,44.50
2019-02-03T04:27:52.870Z,43.67
2019-02-03T04:30:42.112Z,44.93
2019-02-03T04:33:31.368Z,46.77
2019-02-03T04:36:20.078Z,44.33
2019-02-03T04:39:09.178Z,46.13
2019-02-03T04:41:58.697Z,46.50
2019-02-03T04:44:47.206Z,44.03
2019-02-03T04:47:35.986Z,43.97
2019-02-03T04:50:24.800Z,45.20
2019-02-03T04:53:13.753Z,43.57
2019-02-03T04:56:02.184Z,44.30
2019-02-03T04:58:50.396Z,44.67
2019-02-03T05:01:39.188Z,44.80
2019-02-03T05:04:27.649Z,42.50
2019-02-03T05:07:18.202Z,44.70
2019-02-03T05:10:09.352Z,41.10
2019-02-03T05:12:58.025Z,42.73
2019-02-03T05:15:46.400Z,42.73
2019-02-03T05:18:35.128Z,42.83
2019-02-03T05:21:24.294Z,41.00
2019-02-03T05:24:14.020Z,39.60
2019-02-03T05:27:02.426Z,40.10
2019-02-03T05:29:51.386Z,40.13
2019-02-03T05:32:39.974Z,39.90
2019-02-03T05:35:28.127Z,38.40
2019-02-03T05:38:17.746Z,37.33
2019-02-03T05:41:06.616Z,36.93
2019-02-03T05:43:54.773Z,36.03
2019-02-03T05:46:43.070Z,34.57
2019-02-03T05:49:31.871Z,32.73
2019-02-03T05:52:21.074Z,33.07
2019-02-03T05:55:10.078Z,32.17
2019-02-03T05:57:59.822Z,31.87
2019-02-03T06:00:48.114Z,30.03
2019-02-03T06:03:36.945Z,30.73
2019-02-03T06:06:25.407Z,29.33
2019-02-03T06:09:15.145Z,30.67
2019-02-03T06:12:03.507Z,29.70
2019-02-03T06:14:51.898Z,29.13
2019-02-03T06:17:40.923Z,30.47
2019-02-03T06:20:29.835Z,29.50
2019-02-03T06:23:18.916Z,28.13
2019-02-03T06:26:07.654Z,26.53
2019-02-03T06:28:56.403Z,27.77
2019-02-03T06:31:44.553Z,27.77
2019-02-03T06:34:33.307Z,27.67
2019-02-03T06:37:22.188Z,26.67
2019-02-03T06:40:10.904Z,25.00
2019-02-03T06:43:00.002Z,26.67
2019-02-03T06:46:16.671Z,25.40
2019-02-03T06:49:09.379Z,25.10
2019-02-03T06:51:57.640Z,23.73
2019-02-03T06:54:46.242Z,24.63
2019-02-03T06:57:35.547Z,25.17
2019-02-03T07:00:24.662Z,22.97
2019-02-03T07:03:13.630Z,22.63
2019-02-03T07:06:03.397Z,23.43
2019-02-03T07:08:51.982Z,22.70
2019-02-03T07:11:41.216Z,22.20
2019-02-03T07:14:29.978Z,22.97
2019-02-03T07:17:19.338Z,21.43
2019-02-03T07:20:08.770Z,21.63
2019-02-03T07:23:27.596Z,21.17
2019-02-03T07:26:17.195Z,21.63
2019-02-03T07:29:05.800Z,21.13
2019-02-03T07:31:54.452Z,21.20
2019-02-03T07:34:42.558Z,21.70
2019-02-03T07:37:32.091Z,21.17
2019-02-03T07:40:20.304Z,20.77
2019-02-03T07:43:09.485Z,20.50
2019-02-03T07:45:58.087Z,20.77
2019-02-03T07:48:46.040Z,21.17
2019-02-03T07:51:34.538Z,20.47
2019-02-03T07:54:22.335Z,21.07
2019-02-03T07:57:11.577Z,20.37
2019-02-03T08:00:00.502Z,20.57
2019-02-03T08:02:49.131Z,19.90
2019-02-03T08:05:37.657Z,19.73
2019-02-03T08:08:26.065Z,19.70
2019-02-03T08:11:14.265Z,21.30
2019-02-03T08:14:03.265Z,20.67
2019-02-03T08:16:52.208Z,19.97
2019-02-03T08:19:40.861Z,20.10
2019-02-03T08:22:28.875Z,20.20
2019-02-03T08:25:17.960Z,19.50
2019-02-03T08:28:07.539Z,19.20
2019-02-03T08:30:56.110Z,18.93
2019-02-03T08:33:44.464Z,18.73
2019-02-03T08:36:33.443Z,18.10
2019-02-03T08:39:21.507Z,18.20
2019-02-03T08:42:09.946Z,17.37
2019-02-03T08:44:58.841Z,17.10
2019-02-03T08:47:47.272Z,16.93
2019-02-03T08:50:37.454Z,17.33
2019-02-03T08:53:26.961Z,15.90
2019-02-03T08:56:15.297Z,15.70
2019-02-03T08:59:03.968Z,15.33
2019-02-03T09:01:53.363Z,14.83
2019-02-03T09:04:42.716Z,15.77
2019-02-03T09:07:32.991Z,15.20
2019-02-03T09:10:22.617Z,14.00
2019-02-03T09:13:12.306Z,13.97
2019-02-03T09:16:01.953Z,13.17
2019-02-03T09:18:51.461Z,14.07
2019-02-03T09:21:41.055Z,13.53
2019-02-03T09:24:29.735Z,14.40
2019-02-03T09:27:18.547Z,13.63
2019-02-03T09:30:09.064Z,12.80
2019-02-03T09:32:58.398Z,13.10
2019-02-03T09:35:47.786Z,13.10
2019-02-03T09:38:36.913Z,13.87
2019-02-03T09:41:26.258Z,13.63
2019-02-03T09:44:14.721Z,14.13
2019-02-03T09:47:04.078Z,13.27
2019-02-03T09:49:53.210Z,14.03
2019-02-03T09:52:43.931Z,13.90
2019-02-03T09:55:32.575Z,13.93
2019-02-03T09:58:21.297Z,13.10
2019-02-03T10:01:09.704Z,12.40
2019-02-03T10:03:57.986Z,12.90
2019-02-03T10:06:50.852Z,13.07
2019-02-03T10:09:39.045Z,13.43
2019-02-03T10:12:28.244Z,13.50
2019-02-03T10:15:17.255Z,14.30
2019-02-03T10:18:08.104Z,13.03
2019-02-03T10:20:56.821Z,13.27
2019-02-03T10:23:45.855Z,13.00
2019-02-03T10:26:34.601Z,13.00
2019-02-03T10:29:22.953Z,12.67
2019-02-03T10:35:29.867Z,12.60
2019-02-03T10:38:18.487Z,13.03
2019-02-03T10:41:07.520Z,12.90
2019-02-03T10:43:56.706Z,12.87
2019-02-03T10:47:08.296Z,13.37
2019-02-03T10:50:01.537Z,12.70
2019-02-03T10:53:30.273Z,13.07
2019-02-03T10:56:24.323Z,12.90
2019-02-03T10:59:14.917Z,13.10
2019-02-03T11:02:04.415Z,13.70
2019-02-03T11:04:53.674Z,13.00
2019-02-03T11:07:42.817Z,14.73
2019-02-03T11:13:49.132Z,14.17
2019-02-03T11:16:42.179Z,14.23
2019-02-03T11:19:36.958Z,15.17
2019-02-03T11:22:47.463Z,14.67
2019-02-03T11:25:41.773Z,13.80
2019-02-03T11:28:32.979Z,15.60
2019-02-03T11:31:26.145Z,15.33
2019-02-03T11:34:14.730Z,14.47
2019-02-03T11:37:03.394Z,15.10
2019-02-03T11:39:52.342Z,14.33
2019-02-03T11:42:41.660Z,15.00
2019-02-03T11:48:50.307Z,15.20
2019-02-03T11:51:39.818Z,15.03
2019-02-03T11:54:28.275Z,14.83
2019-02-03T11:57:17.384Z,14.10
2019-02-03T12:00:08.229Z,14.77
2019-02-03T12:02:57.733Z,13.87
2019-02-03T12:05:46.407Z,13.30
2019-02-03T12:08:35.235Z,12.10
2019-02-03T12:11:24.686Z,12.47
2019-02-03T12:14:13.067Z,12.80
2019-02-03T12:17:02.979Z,13.30
2019-02-03T12:19:52.060Z,12.57
2019-02-03T12:22:40.751Z,12.57
2019-02-03T12:25:31.602Z,12.80
2019-02-03T12:28:19.497Z,12.23
2019-02-03T12:31:08.106Z,11.30
2019-02-03T12:33:56.442Z,11.47
2019-02-03T12:36:45.424Z,12.43
2019-02-03T12:39:35.343Z,12.37
2019-02-03T12:42:23.665Z,13.13
2019-02-03T12:45:13.951Z,12.37
2019-02-03T12:48:02.855Z,13.20
2019-02-03T12:50:51.249Z,14.40
2019-02-03T12:53:44.223Z,14.83
2019-02-03T12:56:35.727Z,17.27
2019-02-03T12:59:25.167Z,18.23
2019-02-03T13:02:19.635Z,18.17
2019-02-03T13:05:11.514Z,18.87
2019-02-03T13:08:01.376Z,20.03
2019-02-03T13:10:56.259Z,18.10
2019-02-03T13:13:44.738Z,19.93
2019-02-03T13:16:34.515Z,19.10
2019-02-03T13:19:24.140Z,20.10
2019-02-03T13:22:12.238Z,20.60
2019-02-03T13:25:02.042Z,20.53
2019-02-03T13:27:51.982Z,20.40
2019-02-03T13:30:51.228Z,19.40
2019-02-03T13:33:39.852Z,19.83
2019-02-03T13:36:28.730Z,21.73
2019-02-03T13:39:17.166Z,21.27
2019-02-03T13:42:05.545Z,19.97
2019-02-03T13:44:53.987Z,20.67
2019-02-03T13:47:42.610Z,22.40
2019-02-03T13:50:32.357Z,24.10
2019-02-03T13:53:21.318Z,23.83
2019-02-03T13:56:10.032Z,25.13
2019-02-03T13:58:58.718Z,24.40
2019-02-03T14:01:50.515Z,25.03
2019-02-03T14:04:37.720Z,24.63
2019-02-03T14:07:26.761Z,26.50
2019-02-03T14:10:17.476Z,25.03
2019-02-03T14:13:06.944Z,25.97
2019-02-03T14:15:55.584Z,24.83
2019-02-03T14:18:44.438Z,26.43
2019-02-03T14:21:33.016Z,27.07
2019-02-03T14:24:23.307Z,27.23
2019-02-03T14:27:12.857Z,26.13
2019-02-03T14:30:02.084Z,26.93
2019-02-03T14:32:51.693Z,25.90
2019-02-03T14:35:44.254Z,24.93
2019-02-03T14:38:36.568Z,25.10
2019-02-03T14:41:26.549Z,26.13
2019-02-03T14:44:15.617Z,25.53
2019-02-03T14:47:04.304Z,27.37
2019-02-03T14:49:53.299Z,26.33
2019-02-03T14:52:42.838Z,27.30
2019-02-03T14:55:36.839Z,27.30
2019-02-03T14:58:28.565Z,28.20
2019-02-03T15:01:19.556Z,26.53
2019-02-03T15:04:08.412Z,26.43
2019-02-03T15:06:57.690Z,26.63
2019-02-03T15:09:45.748Z,27.40
2019-02-03T15:12:35.531Z,26.40
2019-02-03T15:15:26.079Z,27.07
2019-02-03T15:18:16.867Z,26.27
2019-02-03T15:21:09.767Z,26.93
2019-02-03T15:23:59.778Z,25.73
2019-02-03T15:26:48.888Z,27.43
2019-02-03T15:29:38.672Z,28.40
2019-02-03T15:32:27.085Z,27.70
2019-02-03T15:35:22.679Z,25.97
2019-02-03T15:38:11.784Z,25.93
2019-02-03T15:41:00.535Z,27.70
2019-02-03T15:43:53.731Z,27.50
2019-02-03T15:46:42.356Z,25.40
2019-02-03T15:49:34.142Z,27.03
2019-02-03T15:52:23.711Z,26.27
2019-02-03T15:55:16.056Z,26.73
2019-02-03T15:58:06.597Z,25.87
2019-02-03T16:00:55.842Z,26.63
2019-02-03T16:03:47.990Z,26.30
2019-02-03T16:06:36.039Z,25.60
2019-02-03T16:09:24.419Z,24.10
2019-02-03T16:12:13.919Z,23.80
2019-02-03T16:15:02.664Z,21.53
2019-02-03T16:17:51.550Z,21.70
2019-02-03T16:20:40.722Z,21.53
2019-02-03T16:23:30.278Z,20.10
2019-02-03T16:29:45.855Z,20.87
2019-02-03T16:32:37.605Z,21.17
2019-02-03T16:35:29.678Z,21.53
2019-02-03T16:38:22.993Z,20.87
2019-02-03T16:41:12.007Z,21.97
2019-02-03T16:44:01.187Z,22.20
2019-02-03T16:46:56.443Z,22.43
2019-02-03T16:49:46.780Z,22.47
2019-02-03T16:52:38.452Z,22.03
2019-02-03T16:55:27.989Z,23.10
2019-02-03T16:58:22.064Z,23.17
2019-02-03T17:01:10.755Z,23.20
2019-02-03T17:04:05.811Z,23.20
2019-02-03T17:06:55.033Z,21.40
2019-02-03T17:09:43.686Z,21.67
2019-02-03T17:12:33.044Z,20.77
2019-02-03T17:15:31.102Z,19.17
2019-02-03T17:18:20.125Z,19.77
2019-02-03T17:21:09.254Z,19.23
2019-02-03T17:23:58.749Z,20.40
2019-02-03T17:26:47.702Z,20.77
2019-02-03T17:29:36.560Z,21.07
2019-02-03T17:32:25.267Z,20.40
2019-02-03T17:38:27.536Z,20.37
2019-02-03T17:41:16.386Z,21.90
2019-02-03T17:44:13.349Z,22.03
2019-02-03T17:46:56.468Z,20.63
2019-02-03T17:49:45.854Z,23.97
2019-02-03T17:52:39.112Z,24.00
2019-02-03T17:55:26.979Z,25.03
2019-02-03T17:58:15.565Z,24.73
2019-02-03T18:01:14.689Z,25.07
2019-02-03T18:04:03.372Z,25.27
2019-02-03T18:06:52.340Z,24.40
2019-02-03T18:09:46.169Z,24.23
2019-02-03T18:12:34.623Z,24.13
2019-02-03T18:15:23.094Z,24.40
2019-02-03T18:18:11.367Z,24.00
2019-02-03T18:20:59.743Z,24.10
2019-02-03T18:23:48.491Z,24.17
2019-02-03T18:26:41.088Z,24.47
2019-02-03T18:29:30.349Z,23.57
2019-02-03T18:32:20.015Z,22.93
2019-02-03T18:35:10.583Z,23.30
2019-02-03T18:38:00.075Z,23.20
2019-02-03T18:40:50.080Z,23.20
2019-02-03T18:43:38.949Z,22.17
2019-02-03T18:46:27.819Z,23.33
2019-02-03T18:49:16.791Z,23.30
2019-02-03T18:52:05.275Z,23.97
2019-02-03T18:54:54.445Z,23.67
2019-02-03T18:57:44.111Z,23.03
2019-02-03T19:00:34.183Z,23.50
2019-02-03T19:03:22.833Z,24.93
2019-02-03T19:06:11.170Z,24.13
2019-02-03T19:09:00.569Z,24.80
2019-02-03T19:11:49.263Z,24.57
2019-02-03T19:14:46.832Z,24.57
2019-02-03T19:17:28.052Z,25.53
2019-02-03T19:20:22.144Z,25.40
2019-02-03T19:23:14.855Z,25.13
2019-02-03T19:26:03.443Z,24.13
2019-02-03T19:28:52.141Z,24.20
2019-02-03T19:31:41.428Z,26.13
2019-02-03T19:34:44.569Z,25.23
2019-02-03T19:37:32.366Z,25.40
2019-02-03T19:40:22.751Z,26.20
2019-02-03T19:43:11.592Z,24.93
2019-02-03T19:46:00.391Z,25.23
2019-02-03T19:48:49.027Z,26.33
2019-02-03T19:51:38.462Z,26.43
2019-02-03T19:54:27.129Z,27.87
2019-02-03T19:57:16.731Z,27.83
2019-02-03T20:00:08.986Z,26.40
2019-02-03T20:02:57.923Z,27.60
2019-02-03T20:05:46.862Z,27.07
2019-02-03T20:08:36.159Z,26.47
2019-02-03T20:11:56.616Z,26.70
2019-02-03T20:14:44.880Z,27.17
2019-02-03T20:17:33.612Z,26.47
2019-02-03T20:20:25.040Z,27.57
2019-02-03T20:23:15.242Z,25.23
2019-02-03T20:26:04.757Z,27.70
2019-02-03T20:28:53.390Z,26.00
2019-02-03T20:31:42.211Z,25.63
2019-02-03T20:34:30.343Z,27.13
2019-02-03T20:37:18.919Z,26.50
2019-02-03T20:40:08.804Z,26.80
2019-02-03T20:42:58.127Z,29.03
2019-02-03T20:45:49.818Z,27.87
2019-02-03T20:48:37.330Z,26.07
2019-02-03T20:51:25.922Z,26.70
2019-02-03T20:54:14.248Z,26.07
2019-02-03T20:57:03.141Z,26.30
2019-02-03T20:59:52.357Z,26.40
2019-02-03T21:02:41.320Z,26.20
2019-02-03T21:05:30.756Z,25.87
2019-02-03T21:08:19.354Z,27.13
2019-02-03T21:11:08.975Z,26.20
2019-02-03T21:13:57.535Z,27.27
2019-02-03T21:16:46.717Z,26.47
2019-02-03T21:19:36.450Z,27.60
2019-02-03T21:22:26.643Z,26.37
2019-02-03T21:25:16.472Z,28.30
2019-02-03T21:28:05.642Z,28.47
2019-02-03T21:30:55.472Z,27.03
2019-02-03T21:33:45.280Z,26.43
2019-02-03T21:36:34.145Z,26.97
2019-02-03T21:39:24.152Z,26.10
2019-02-03T21:42:12.746Z,26.03
2019-02-03T21:45:01.662Z,26.30
2019-02-03T21:47:50.405Z,26.33
2019-02-03T21:50:39.506Z,27.13
2019-02-03T21:53:28.191Z,27.17
2019-02-03T21:56:17.181Z,25.97
2019-02-03T21:59:06.853Z,25.67
2019-02-03T22:01:55.868Z,26.17
2019-02-03T22:04:44.525Z,26.13
2019-02-03T22:07:36.301Z,26.03
2019-02-03T22:10:26.914Z,26.83
2019-02-03T22:13:15.831Z,25.93
2019-02-03T22:16:04.128Z,26.60
2019-02-03T22:18:53.929Z,26.70
2019-02-03T22:21:42.685Z,26.73
2019-02-03T22:24:30.623Z,25.73
2019-02-03T22:27:19.036Z,26.17
2019-02-03T22:30:15.112Z,25.80
2019-02-03T22:33:03.731Z,26.93
2019-02-03T22:35:52.840Z,25.60
2019-02-03T22:38:41.041Z,25.80
2019-02-03T22:41:29.993Z,25.90
2019-02-03T22:44:18.515Z,24.33
2019-02-03T22:47:07.599Z,25.07
2019-02-03T22:49:56.548Z,23.37
2019-02-03T22:52:46.771Z,23.37
2019-02-03T22:55:35.903Z,25.03
2019-02-03T22:58:24.589Z,24.20
2019-02-03T23:01:23.612Z,24.40
2019-02-03T23:04:21.973Z,24.03
2019-02-03T23:07:10.760Z,25.00
2019-02-03T23:09:59.277Z,24.73
2019-02-03T23:12:48.069Z,25.80
2019-02-03T23:15:37.098Z,24.93
2019-02-03T23:18:26.697Z,24.67
2019-02-03T23:21:16.270Z,25.03
2019-02-03T23:24:05.579Z,23.60
2019-02-03T23:26:54.951Z,25.23
2019-02-03T23:29:44.147Z,24.90
2019-02-03T23:32:33.117Z,25.30
2019-02-03T23:35:22.490Z,24.83
2019-02-03T23:38:10.988Z,25.73
2019-02-03T23:41:00.260Z,23.70
2019-02-03T23:43:48.869Z,23.77
2019-02-03T23:46:37.816Z,24.53
2019-02-03T23:49:26.022Z,25.17
2019-02-03T23:52:14.404Z,24.57
2019-02-03T23:55:02.894Z,24.77
2019-02-03T23:57:51.088Z,24.43
